Startpagina
METAR-TAF:

METAR-TAF

Vliegvelden :

Port Moresby, Papoea-Nieuw-Guinea

Luchthaven Port Moresby

breedte: 09-26S, lengte: 147-13E, hoogte: 38 m

Actueel weer

Dit bericht is 1 uur en het 59 minuten geleden gemaakt, om 00:00 UTC
Wind 10 kt uit het zuiden
Temperatuur 30°C
Vochtigheid 70%
Druk 1010 hPa
Zicht 10 km of meer
Heiigheid

METAR: AYPY 230000Z 18010KT 9999 BKIN018 30/24 Q1010 HZ

Tijdstip: 11:59 (01:59 UTC)

Verwachting

Dit bericht is 3 uur en het 51 minuten geleden gemaakt, om 22:08 UTC
Verwachting geldig van 23 om 00 UTC tot 23 om 24 UTC
Wind 5 kt uit het noordnoordwesten
Zicht 10 km of meer
Verspreide wolken op 1800 ft
Van 23 om 0200 UTC
Wind 7 kt uit het zuidwesten
Zicht 10 km of meer
Verspreide wolken op 2000 ft
Van 23 om 0600 UTC
Wind 8 kt uit het zuiden
Zicht 10 km of meer
Weinig wolken op 2000 ft
Verspreide wolken op 4000 ft

TAF: AYPY 222208Z 2300/2324 34005KT 9999 SCT018 FM230200 232007KT 9999 SCT020 FM230600 18008KT 9999 FEW020 SCT040

Waarnemingen en weersverwachtingen van meer dan 4000 vliegvelden (METAR en TAF).

De beschikbare stations zijn de gele en rode punten op de kaart.

Ga met uw muis naar het station om de naam te zien.

Klik dan om waarnemingen en weersverwachtingen te zien.

kaart wijzigen: klik op de groene knoppen met een zwart kruis om in te zoomen, op de groene knop met een streepje om uit te zoomen of op de groene pijlen voor aangrenzende kaarten.


METAR-TAF: